Time;durP1;ratioP1;P1;durP2;ratioP2;P2;SDS_P1;SDS_P2;PMS_P1;PMS_P2;Temp;Humidity;BMP_temperature;BMP_pressure;BME280_temperature;BME280_humidity;BME280_pressure;Samples;Min_cycle;Max_cycle;Signal;HPM_P1;HPM_P2
2023/08/10 00:01:30;;;;;;;8.48;2.63;;;15.60;99.90;;;;;;4880535;29;20052;-79
2023/08/10 00:03:56;;;;;;;8.25;2.47;;;15.50;99.90;;;;;;4882879;29;20140;-79
2023/08/10 00:06:22;;;;;;;5.60;2.30;;;15.50;99.90;;;;;;4884025;29;20053;-80
2023/08/10 00:08:49;;;;;;;9.13;2.85;;;15.40;99.90;;;;;;4892133;29;20045;-76
2023/08/10 00:11:15;;;;;;;8.18;2.45;;;15.40;99.90;;;;;;4881448;29;20052;-78
2023/08/10 00:13:42;;;;;;;9.23;2.38;;;15.40;99.90;;;;;;4881671;29;20145;-78
2023/08/10 00:16:07;;;;;;;7.82;2.47;;;15.40;99.90;;;;;;4881770;29;20053;-78
2023/08/10 00:18:33;;;;;;;6.72;2.78;;;15.30;99.90;;;;;;4881209;29;20056;-78
2023/08/10 00:20:59;;;;;;;10.82;2.97;;;15.30;99.90;;;;;;4873244;29;20041;-78
2023/08/10 00:23:25;;;;;;;7.72;2.33;;;15.10;99.90;;;;;;4882004;29;20108;-78
2023/08/10 00:25:51;;;;;;;6.80;2.72;;;15.10;99.90;;;;;;4865649;29;20116;-75
2023/08/10 00:28:17;;;;;;;4.72;2.30;;;15.10;99.90;;;;;;4882269;29;20108;-78
2023/08/10 00:30:42;;;;;;;7.95;2.50;;;15.10;99.90;;;;;;4882042;29;20487;-79
2023/08/10 00:33:08;;;;;;;10.45;2.75;;;15.00;99.90;;;;;;4865365;29;20055;-78
2023/08/10 00:35:38;;;;;;;7.80;2.60;;;15.10;99.90;;;;;;4884521;29;20048;-78
2023/08/10 00:38:04;;;;;;;8.85;2.67;;;15.00;99.90;;;;;;4886835;29;20053;-78
2023/08/10 00:40:30;;;;;;;7.30;2.42;;;15.00;99.90;;;;;;4890141;29;20055;-79
2023/08/10 00:43:00;;;;;;;7.65;2.42;;;15.10;99.90;;;;;;4885655;29;20133;-77
2023/08/10 00:45:27;;;;;;;9.77;2.60;;;15.10;99.90;;;;;;4885589;29;20467;-79
2023/08/10 00:47:53;;;;;;;10.32;2.40;;;15.10;99.90;;;;;;4880924;29;20444;-75
2023/08/10 00:50:20;;;;;;;4.85;2.10;;;15.10;99.90;;;;;;4881228;29;20052;-78
2023/08/10 00:52:46;;;;;;;10.75;2.67;;;15.10;99.90;;;;;;4884836;29;20108;-79
2023/08/10 00:55:12;;;;;;;8.70;2.63;;;15.10;99.90;;;;;;4881690;29;20491;-78
2023/08/10 00:57:38;;;;;;;6.57;2.30;;;15.10;99.90;;;;;;4865753;29;20055;-77
2023/08/10 01:00:06;;;;;;;11.82;2.63;;;15.20;99.90;;;;;;4881065;29;20143;-78
2023/08/10 01:02:32;;;;;;;8.88;2.28;;;15.20;99.90;;;;;;4880607;29;20045;-78
2023/08/10 01:04:57;;;;;;;7.03;2.38;;;15.20;99.90;;;;;;4880712;29;20506;-74
2023/08/10 01:07:38;;;;;;;5.68;2.30;;;15.20;99.90;;;;;;4879693;29;20048;-79
2023/08/10 01:10:22;;;;;;;10.20;2.58;;;15.30;99.90;;;;;;4863867;29;20045;-78
2023/08/10 01:12:59;;;;;;;7.55;2.50;;;15.30;99.90;;;;;;4879777;29;20496;-78
2023/08/10 01:15:40;;;;;;;7.57;2.45;;;15.30;99.90;;;;;;4880962;29;20083;-78
2023/08/10 01:18:09;;;;;;;5.78;2.30;;;15.30;99.90;;;;;;4881317;29;20041;-77
2023/08/10 01:20:36;;;;;;;5.72;2.20;;;15.30;99.90;;;;;;4880351;29;20485;-78
2023/08/10 01:23:30;;;;;;;6.68;2.47;;;15.30;99.90;;;;;;4879550;29;20499;-78
2023/08/10 01:25:57;;;;;;;5.13;2.20;;;15.30;99.90;;;;;;4874640;29;20109;-77
2023/08/10 01:28:24;;;;;;;9.48;2.47;;;15.30;99.90;;;;;;4894512;29;20112;-78
2023/08/10 01:30:50;;;;;;;5.13;2.03;;;15.30;99.90;;;;;;4895278;29;20538;-77
2023/08/10 01:33:16;;;;;;;13.25;2.28;;;15.30;99.90;;;;;;4875212;29;20080;-79
2023/08/10 01:35:42;;;;;;;10.38;2.47;;;15.30;99.90;;;;;;4872198;29;20056;-80
2023/08/10 01:38:07;;;;;;;5.35;2.15;;;15.30;99.90;;;;;;4900764;29;20112;-78
2023/08/10 01:40:33;;;;;;;6.00;2.35;;;15.30;99.90;;;;;;4900288;29;20048;-78
2023/08/10 01:42:59;;;;;;;9.02;2.10;;;15.30;99.90;;;;;;4892157;29;20136;-78
2023/08/10 01:45:25;;;;;;;10.32;2.67;;;15.30;99.90;;;;;;4884563;29;20049;-78
2023/08/10 01:47:57;;;;;;;8.63;2.20;;;15.30;99.90;;;;;;4899206;29;20132;-78
2023/08/10 01:50:26;;;;;;;7.00;2.33;;;15.30;99.90;;;;;;4888313;29;20049;-77
2023/08/10 01:52:59;;;;;;;7.50;2.30;;;15.30;99.90;;;;;;4897735;29;20072;-78
2023/08/10 01:55:25;;;;;;;5.65;2.50;;;15.30;99.90;;;;;;4891027;29;20131;-78
2023/08/10 01:57:51;;;;;;;4.90;1.98;;;15.30;99.90;;;;;;4899672;29;20481;-78
2023/08/10 02:00:17;;;;;;;7.72;2.15;;;15.30;99.90;;;;;;4876917;29;20037;-78
2023/08/10 02:02:43;;;;;;;6.43;2.22;;;15.30;99.90;;;;;;4879999;29;20057;-78
2023/08/10 02:05:11;;;;;;;4.38;1.90;;;15.30;99.90;;;;;;4888855;29;20478;-78
2023/08/10 02:07:37;;;;;;;7.68;2.22;;;15.30;99.90;;;;;;4897886;29;20057;-78
2023/08/10 02:10:04;;;;;;;8.23;2.53;;;15.30;99.90;;;;;;4867990;29;20135;-78
2023/08/10 02:12:30;;;;;;;9.63;2.70;;;15.30;99.90;;;;;;4892005;29;20052;-78
2023/08/10 02:14:58;;;;;;;6.10;2.38;;;15.30;99.90;;;;;;4892747;29;20052;-79
2023/08/10 02:17:26;;;;;;;6.60;2.50;;;15.30;99.90;;;;;;4890627;29;20087;-78
2023/08/10 02:19:51;;;;;;;9.30;2.30;;;15.30;99.90;;;;;;4897998;29;20077;-78
2023/08/10 02:22:17;;;;;;;5.53;1.95;;;15.30;99.90;;;;;;4895372;29;20045;-78
2023/08/10 02:24:43;;;;;;;6.22;2.30;;;15.30;99.90;;;;;;4893426;29;20128;-78
2023/08/10 02:27:09;;;;;;;7.38;2.40;;;15.30;99.90;;;;;;4892117;29;20131;-76
2023/08/10 02:29:35;;;;;;;6.70;2.03;;;15.30;99.90;;;;;;4866918;29;20491;-78
2023/08/10 02:32:00;;;;;;;6.85;2.60;;;15.30;99.90;;;;;;4892443;29;20463;-80
2023/08/10 02:34:26;;;;;;;5.70;2.17;;;15.30;99.90;;;;;;4888663;29;20052;-79
2023/08/10 02:36:52;;;;;;;5.68;2.03;;;15.30;99.90;;;;;;4873904;29;20495;-79
2023/08/10 02:39:17;;;;;;;8.05;2.15;;;15.30;99.90;;;;;;4897084;29;20041;-78
2023/08/10 02:41:44;;;;;;;5.88;1.92;;;15.30;99.90;;;;;;4866508;29;20063;-78
2023/08/10 02:44:09;;;;;;;8.10;2.45;;;15.30;99.90;;;;;;4886720;29;20400;-75
2023/08/10 02:46:36;;;;;;;9.30;2.30;;;15.30;99.90;;;;;;4895721;29;20150;-76
2023/08/10 02:49:01;;;;;;;9.23;2.55;;;15.30;99.90;;;;;;4897880;29;20056;-78
2023/08/10 02:51:27;;;;;;;9.73;2.30;;;15.30;99.90;;;;;;4866512;29;20049;-77
2023/08/10 02:53:53;;;;;;;5.25;2.25;;;15.30;99.90;;;;;;4875453;29;20114;-78
2023/08/10 02:56:18;;;;;;;10.27;2.20;;;15.30;99.90;;;;;;4895871;29;20044;-77
2023/08/10 02:58:44;;;;;;;7.78;2.40;;;15.30;99.90;;;;;;4885810;29;20116;-77
2023/08/10 03:01:10;;;;;;;12.93;2.53;;;15.30;99.90;;;;;;4890697;29;20063;-77
2023/08/10 03:03:35;;;;;;;8.95;2.08;;;15.30;99.90;;;;;;4877158;29;20425;-77
2023/08/10 03:06:02;;;;;;;11.90;2.90;;;15.30;99.90;;;;;;4882395;29;20049;-77
2023/08/10 03:08:28;;;;;;;6.15;2.58;;;15.30;99.90;;;;;;4881995;29;20049;-78
2023/08/10 03:10:54;;;;;;;8.68;2.45;;;15.20;99.90;;;;;;4868174;29;20059;-78
2023/08/10 03:13:19;;;;;;;10.02;2.70;;;15.20;99.90;;;;;;4881535;29;20057;-78
2023/08/10 03:15:45;;;;;;;6.00;2.10;;;15.10;99.90;;;;;;4894552;29;20048;-77
2023/08/10 03:18:11;;;;;;;5.15;2.33;;;15.10;99.90;;;;;;4873339;29;20372;-77
2023/08/10 03:20:36;;;;;;;8.35;2.45;;;15.10;99.90;;;;;;4888789;29;20183;-79
2023/08/10 03:23:02;;;;;;;7.93;2.65;;;15.10;99.90;;;;;;4897871;29;20053;-77
2023/08/10 03:25:28;;;;;;;6.32;2.10;;;15.10;99.90;;;;;;4879950;29;20060;-77
2023/08/10 03:27:54;;;;;;;8.02;3.00;;;15.10;99.90;;;;;;4896752;29;20483;-78
2023/08/10 03:30:19;;;;;;;7.18;2.67;;;15.10;99.90;;;;;;4893546;29;20189;-77
2023/08/10 03:32:46;;;;;;;7.78;2.90;;;15.10;99.90;;;;;;4898365;29;20208;-77
2023/08/10 03:35:13;;;;;;;7.35;2.72;;;15.10;99.90;;;;;;4879510;29;20504;-79
2023/08/10 03:37:38;;;;;;;8.88;2.58;;;15.00;99.90;;;;;;4900648;29;20815;-77
2023/08/10 03:40:05;;;;;;;9.80;2.80;;;15.00;99.90;;;;;;4894096;29;20055;-77
2023/08/10 03:42:30;;;;;;;7.07;2.70;;;15.00;99.90;;;;;;4898456;29;20096;-78
2023/08/10 03:44:56;;;;;;;8.98;3.00;;;15.00;99.90;;;;;;4872755;29;20136;-77
2023/08/10 03:47:22;;;;;;;7.45;3.00;;;15.00;99.90;;;;;;4871576;29;20505;-77
2023/08/10 03:49:49;;;;;;;7.70;2.80;;;15.00;99.90;;;;;;4891150;29;20068;-76
2023/08/10 03:52:15;;;;;;;9.80;2.33;;;14.90;99.90;;;;;;4875376;29;20068;-79
2023/08/10 03:54:40;;;;;;;7.35;2.70;;;15.00;99.90;;;;;;4896797;29;20056;-79
2023/08/10 03:57:06;;;;;;;9.10;2.97;;;15.00;99.90;;;;;;4889186;29;20045;-77
2023/08/10 03:59:32;;;;;;;7.68;2.55;;;15.00;99.90;;;;;;4901186;29;20403;-77
2023/08/10 04:01:58;;;;;;;6.95;2.60;;;15.00;99.90;;;;;;4888814;29;20093;-79
2023/08/10 04:04:24;;;;;;;6.38;2.55;;;15.00;99.90;;;;;;4900216;29;20147;-78
2023/08/10 04:06:50;;;;;;;7.68;2.60;;;15.00;99.90;;;;;;4879142;29;20567;-78
2023/08/10 04:09:15;;;;;;;7.93;2.67;;;15.00;99.90;;;;;;4898971;29;20385;-79
2023/08/10 04:11:41;;;;;;;6.40;2.67;;;15.00;99.90;;;;;;4888677;29;20077;-78
2023/08/10 04:14:07;;;;;;;6.55;2.45;;;15.00;99.90;;;;;;4896296;29;20463;-79
2023/08/10 04:16:32;;;;;;;9.70;3.00;;;15.00;99.90;;;;;;4885030;29;20096;-78
2023/08/10 04:18:58;;;;;;;12.02;2.60;;;15.00;99.90;;;;;;4894769;29;20502;-78
2023/08/10 04:21:24;;;;;;;8.10;2.50;;;15.00;99.90;;;;;;4893063;29;20083;-74
2023/08/10 04:23:50;;;;;;;8.20;3.13;;;15.00;99.90;;;;;;4891163;29;20057;-77
2023/08/10 04:26:16;;;;;;;11.88;2.80;;;15.00;99.90;;;;;;4900692;29;20045;-79
2023/08/10 04:28:42;;;;;;;6.15;2.50;;;15.00;99.90;;;;;;4899697;29;20044;-78
2023/08/10 04:31:08;;;;;;;7.53;2.80;;;15.00;99.90;;;;;;4889391;29;20131;-78
2023/08/10 04:33:34;;;;;;;6.22;2.35;;;14.90;99.90;;;;;;4900178;29;20400;-77
2023/08/10 04:36:00;;;;;;;9.35;2.92;;;14.90;99.90;;;;;;4898456;29;20459;-77
2023/08/10 04:38:26;;;;;;;6.65;2.78;;;14.90;99.90;;;;;;4889755;29;20044;-75
2023/08/10 04:40:53;;;;;;;6.38;2.67;;;15.00;99.90;;;;;;4881724;29;20141;-77
2023/08/10 04:43:18;;;;;;;6.30;2.50;;;15.00;99.90;;;;;;4882708;29;20061;-77
2023/08/10 04:45:44;;;;;;;6.80;3.00;;;15.00;99.90;;;;;;4872643;29;20411;-78
2023/08/10 04:48:10;;;;;;;9.13;3.17;;;15.00;99.90;;;;;;4881443;29;20133;-79
2023/08/10 04:50:36;;;;;;;10.43;2.90;;;15.00;99.90;;;;;;4881547;29;20049;-76
2023/08/10 04:53:02;;;;;;;6.03;2.92;;;15.00;99.90;;;;;;4885362;29;20052;-78
2023/08/10 04:55:28;;;;;;;6.72;2.72;;;15.00;99.90;;;;;;4879306;29;20052;-75
2023/08/10 04:57:54;;;;;;;7.85;2.70;;;15.00;99.90;;;;;;4880851;29;20045;-78
2023/08/10 05:00:19;;;;;;;8.80;3.00;;;15.00;99.90;;;;;;4880632;29;20056;-77
2023/08/10 05:02:45;;;;;;;5.18;2.97;;;15.00;99.90;;;;;;4882095;29;20123;-76
2023/08/10 05:05:11;;;;;;;7.75;2.70;;;15.00;99.90;;;;;;4880708;29;20060;-78
2023/08/10 05:07:38;;;;;;;9.48;3.35;;;15.10;99.90;;;;;;4880678;29;20113;-78
2023/08/10 05:10:06;;;;;;;8.48;2.88;;;15.10;99.90;;;;;;4881905;29;20052;-78
2023/08/10 05:12:34;;;;;;;10.13;3.30;;;15.10;99.90;;;;;;4885089;29;20252;-75
2023/08/10 05:14:59;;;;;;;6.53;2.97;;;15.20;99.90;;;;;;4891368;29;20049;-77
2023/08/10 05:17:26;;;;;;;6.03;3.17;;;15.20;99.90;;;;;;4865272;29;20184;-76
2023/08/10 05:19:51;;;;;;;5.93;2.95;;;15.20;99.90;;;;;;4865736;29;20048;-79
2023/08/10 05:22:17;;;;;;;8.27;2.85;;;15.20;99.90;;;;;;4882251;29;20044;-77
2023/08/10 05:24:43;;;;;;;6.35;3.03;;;15.30;99.90;;;;;;4881567;29;20049;-77
2023/08/10 05:27:08;;;;;;;8.15;2.88;;;15.30;99.90;;;;;;4881874;29;20499;-77
2023/08/10 05:29:34;;;;;;;9.18;3.40;;;15.40;99.90;;;;;;4878672;29;20128;-75
2023/08/10 05:32:00;;;;;;;11.90;2.72;;;15.50;99.90;;;;;;4864677;29;20053;-78
2023/08/10 05:34:25;;;;;;;9.65;3.08;;;15.50;99.90;;;;;;4886912;29;20084;-78
2023/08/10 05:36:51;;;;;;;10.73;3.08;;;15.50;99.90;;;;;;4887721;29;20057;-78
2023/08/10 05:39:17;;;;;;;7.88;2.83;;;15.60;99.90;;;;;;4899964;29;20399;-79
2023/08/10 05:41:43;;;;;;;8.15;2.85;;;15.60;99.90;;;;;;4896034;29;20059;-79
2023/08/10 05:44:09;;;;;;;7.35;2.80;;;15.60;99.90;;;;;;4899497;29;20060;-77
2023/08/10 05:46:35;;;;;;;10.45;3.45;;;15.70;99.90;;;;;;4890501;29;20053;-75
2023/08/10 05:49:00;;;;;;;7.30;3.10;;;15.70;99.90;;;;;;4867345;29;20048;-78
2023/08/10 05:51:26;;;;;;;6.55;2.83;;;15.90;99.90;;;;;;4888868;29;20044;-78
2023/08/10 05:53:52;;;;;;;7.45;3.00;;;15.90;99.90;;;;;;4896180;29;20048;-77
2023/08/10 05:56:18;;;;;;;8.85;2.60;;;15.90;99.90;;;;;;4896012;29;20496;-78
2023/08/10 05:58:44;;;;;;;5.75;2.63;;;15.90;99.90;;;;;;4877232;29;20041;-77
2023/08/10 06:01:09;;;;;;;7.72;2.53;;;16.00;99.90;;;;;;4893320;29;20507;-78
2023/08/10 06:03:35;;;;;;;9.32;2.63;;;15.90;99.90;;;;;;4892764;29;20117;-78
2023/08/10 06:06:03;;;;;;;7.82;2.38;;;15.90;99.90;;;;;;4896874;29;20048;-78
2023/08/10 06:08:29;;;;;;;4.80;2.50;;;15.90;99.90;;;;;;4897496;29;20054;-78
2023/08/10 06:10:54;;;;;;;7.10;2.88;;;15.90;99.90;;;;;;4884457;29;20124;-78
2023/08/10 06:13:20;;;;;;;4.70;2.63;;;16.00;99.90;;;;;;4887484;29;20048;-79
2023/08/10 06:15:47;;;;;;;7.20;2.78;;;16.00;99.90;;;;;;4896935;29;20121;-77
2023/08/10 06:18:13;;;;;;;8.00;2.90;;;16.20;99.90;;;;;;4898161;29;20514;-78
2023/08/10 06:20:40;;;;;;;6.03;2.30;;;16.60;99.90;;;;;;4895462;29;20105;-76
2023/08/10 06:23:06;;;;;;;10.93;2.90;;;17.70;99.90;;;;;;4884160;29;20088;-77
2023/08/10 06:25:33;;;;;;;6.90;2.65;;;19.20;99.90;;;;;;4879483;29;20060;-77
2023/08/10 06:27:59;;;;;;;10.60;2.72;;;20.50;99.90;;;;;;4881554;29;20076;-78
2023/08/10 06:30:25;;;;;;;7.88;2.50;;;21.60;99.90;;;;;;4879855;29;20056;-77
2023/08/10 06:32:51;;;;;;;8.77;2.33;;;22.40;99.90;;;;;;4879032;29;20197;-77
2023/08/10 06:35:20;;;;;;;8.82;2.33;;;23.20;99.90;;;;;;4890381;29;20048;-78
2023/08/10 06:37:48;;;;;;;6.53;2.00;;;23.90;99.90;;;;;;4887693;29;20045;-77
2023/08/10 06:40:15;;;;;;;8.38;2.00;;;24.40;99.90;;;;;;4886052;29;20040;-77
2023/08/10 06:42:41;;;;;;;7.07;2.22;;;24.90;99.90;;;;;;4870860;29;20076;-76
2023/08/10 06:45:08;;;;;;;7.05;2.20;;;25.40;99.70;;;;;;4891535;29;20084;-77
2023/08/10 06:47:34;;;;;;;5.85;2.40;;;25.60;98.70;;;;;;4891497;29;20084;-77
2023/08/10 06:50:00;;;;;;;10.48;2.25;;;26.00;98.20;;;;;;4856069;29;20074;-78
2023/08/10 06:52:26;;;;;;;6.13;2.00;;;26.30;97.70;;;;;;4887131;29;20112;-76
2023/08/10 06:54:52;;;;;;;5.03;2.10;;;26.70;97.20;;;;;;4881034;29;20041;-76
2023/08/10 06:57:21;;;;;;;7.85;2.38;;;27.00;96.60;;;;;;4891231;29;20056;-77
2023/08/10 06:59:47;;;;;;;6.07;1.60;;;27.30;95.70;;;;;;4866668;29;20041;-74
2023/08/10 07:02:14;;;;;;;8.88;1.95;;;27.50;95.60;;;;;;4877835;29;20045;-77
2023/08/10 07:04:40;;;;;;;7.07;2.00;;;27.90;95.20;;;;;;4879294;29;20128;-78
2023/08/10 07:07:07;;;;;;;9.32;2.20;;;28.20;94.70;;;;;;4877373;29;20057;-78
2023/08/10 07:09:33;;;;;;;5.68;1.70;;;28.50;94.40;;;;;;4860651;29;20052;-78
2023/08/10 07:11:58;;;;;;;7.80;1.77;;;28.60;94.00;;;;;;4870016;29;20053;-77
2023/08/10 07:14:24;;;;;;;3.42;1.42;;;28.90;93.40;;;;;;4877848;29;20120;-78
2023/08/10 07:16:50;;;;;;;5.97;1.85;;;29.10;93.30;;;;;;4884505;29;20051;-77
2023/08/10 07:19:15;;;;;;;6.20;1.70;;;29.20;92.60;;;;;;4880789;29;20053;-79
2023/08/10 07:21:41;;;;;;;5.88;1.55;;;29.30;92.60;;;;;;4865999;29;20074;-77
2023/08/10 07:24:07;;;;;;;5.47;1.42;;;29.30;92.40;;;;;;4861161;29;20142;-77
2023/08/10 07:26:33;;;;;;;5.75;1.65;;;29.50;92.20;;;;;;4872866;29;20045;-78
2023/08/10 07:28:59;;;;;;;8.52;2.08;;;29.40;91.90;;;;;;4879736;29;20252;-77
2023/08/10 07:31:28;;;;;;;6.18;1.60;;;29.30;92.00;;;;;;4885864;29;20076;-79
2023/08/10 07:33:54;;;;;;;5.20;1.50;;;29.50;91.90;;;;;;4885450;29;20057;-78
2023/08/10 07:36:20;;;;;;;9.02;2.35;;;29.60;91.90;;;;;;4890511;29;20049;-80
2023/08/10 07:38:46;;;;;;;7.03;1.85;;;29.90;91.50;;;;;;4897678;29;20120;-79
2023/08/10 07:41:13;;;;;;;6.95;1.80;;;29.50;91.30;;;;;;4897254;29;20121;-81
2023/08/10 07:43:39;;;;;;;7.63;1.77;;;29.60;91.50;;;;;;4896321;29;20503;-81
2023/08/10 07:46:04;;;;;;;4.65;1.52;;;30.10;91.30;;;;;;4885618;29;20060;-78
2023/08/10 07:48:30;;;;;;;6.25;1.90;;;30.10;90.70;;;;;;4884486;29;20045;-79
2023/08/10 07:50:57;;;;;;;4.85;1.63;;;29.80;90.90;;;;;;4878451;29;20041;-80
2023/08/10 07:53:23;;;;;;;4.32;1.55;;;29.60;91.10;;;;;;4877802;29;20045;-78
2023/08/10 07:55:49;;;;;;;6.30;1.80;;;29.40;91.30;;;;;;4878539;29;20649;-81
2023/08/10 07:58:15;;;;;;;6.15;1.48;;;29.30;90.90;;;;;;4885562;29;20127;-81
2023/08/10 08:00:42;;;;;;;4.72;1.65;;;29.10;91.00;;;;;;4879378;29;20041;-83
2023/08/10 08:03:09;;;;;;;5.85;1.60;;;28.80;91.40;;;;;;4879033;29;20053;-84
2023/08/10 08:05:37;;;;;;;7.50;1.67;;;28.70;91.70;;;;;;4862798;29;20061;-82
2023/08/10 08:08:05;;;;;;;4.32;1.42;;;28.40;91.60;;;;;;4879143;29;20069;-77
2023/08/10 08:10:31;;;;;;;7.13;1.45;;;27.90;91.50;;;;;;4883612;29;20056;-79
2023/08/10 08:12:56;;;;;;;8.70;1.70;;;27.50;92.00;;;;;;4883785;29;20457;-76
2023/08/10 08:15:22;;;;;;;8.70;2.05;;;27.00;92.20;;;;;;4881594;29;20045;-78
2023/08/10 08:18:43;;;;;;;5.95;1.70;;;26.60;92.50;;;;;;4880111;29;20060;-80
2023/08/10 08:21:14;;;;;;;6.65;1.75;;;26.10;92.70;;;;;;4772627;29;20334;-80
2023/08/10 08:23:40;;;;;;;4.93;1.45;;;25.60;93.20;;;;;;4876471;29;20057;-77
2023/08/10 08:26:06;;;;;;;3.67;1.35;;;25.20;93.40;;;;;;4877268;29;20116;-79
2023/08/10 08:28:32;;;;;;;6.15;2.08;;;24.90;93.50;;;;;;4890381;29;20053;-77
2023/08/10 08:30:58;;;;;;;7.57;1.60;;;24.60;93.90;;;;;;4883982;29;20041;-76
2023/08/10 08:33:24;;;;;;;6.35;1.70;;;24.40;94.50;;;;;;4889302;29;20041;-77
2023/08/10 08:35:50;;;;;;;6.55;1.55;;;24.10;94.80;;;;;;4891339;29;20113;-76
2023/08/10 08:38:17;;;;;;;6.25;1.80;;;23.90;94.70;;;;;;4887757;29;20103;-74
2023/08/10 08:40:44;;;;;;;6.15;1.90;;;23.50;95.10;;;;;;4875681;29;20051;-77
2023/08/10 08:43:11;;;;;;;5.45;1.67;;;23.40;95.50;;;;;;4879183;29;20109;-76
2023/08/10 08:45:39;;;;;;;6.72;1.92;;;23.20;95.40;;;;;;4883778;29;20049;-76
2023/08/10 08:48:07;;;;;;;6.03;1.83;;;23.20;95.80;;;;;;4877796;29;20079;-76
2023/08/10 08:50:35;;;;;;;3.58;1.20;;;23.10;95.70;;;;;;4885719;29;20044;-75
2023/08/10 08:53:04;;;;;;;4.43;1.80;;;23.00;95.70;;;;;;4880690;29;20057;-74
2023/08/10 08:55:31;;;;;;;6.03;1.50;;;22.90;95.80;;;;;;4879454;29;20082;-75
2023/08/10 08:57:57;;;;;;;5.38;1.40;;;22.90;96.00;;;;;;4879981;29;20354;-75
2023/08/10 09:00:23;;;;;;;8.35;1.95;;;22.80;96.00;;;;;;4863394;29;20049;-75
2023/08/10 09:02:50;;;;;;;6.18;1.40;;;22.90;96.10;;;;;;4879051;29;20064;-74
2023/08/10 09:05:16;;;;;;;5.00;1.38;;;22.80;96.30;;;;;;4875107;29;20420;-75
2023/08/10 09:07:42;;;;;;;4.82;1.40;;;22.80;96.00;;;;;;4879605;29;20055;-74
2023/08/10 09:10:09;;;;;;;6.00;1.52;;;22.60;95.60;;;;;;4863831;29;20045;-76
2023/08/10 09:12:39;;;;;;;4.50;1.55;;;22.60;95.50;;;;;;4883345;29;20056;-76
2023/08/10 09:15:11;;;;;;;3.13;1.38;;;22.60;95.70;;;;;;4880140;29;20124;-76
2023/08/10 09:17:48;;;;;;;8.02;1.80;;;22.50;96.00;;;;;;4878682;29;20145;-75
2023/08/10 09:20:19;;;;;;;6.97;1.83;;;22.50;96.40;;;;;;4876059;29;20092;-75
2023/08/10 09:22:46;;;;;;;2.85;1.30;;;22.50;96.60;;;;;;4871287;29;20056;-75
2023/08/10 09:25:12;;;;;;;6.30;1.40;;;22.60;96.30;;;;;;4886204;29;20123;-75
2023/08/10 09:27:38;;;;;;;4.68;1.55;;;22.60;96.20;;;;;;4874874;29;20201;-76
2023/08/10 09:30:06;;;;;;;4.28;1.40;;;22.60;95.90;;;;;;4859880;29;20057;-75
2023/08/10 09:32:33;;;;;;;5.20;1.38;;;22.60;96.10;;;;;;4875881;29;20052;-74
2023/08/10 09:34:59;;;;;;;2.88;1.35;;;22.60;95.70;;;;;;4882538;29;20408;-76
2023/08/10 09:37:26;;;;;;;3.38;1.35;;;22.60;95.40;;;;;;4882402;29;20060;-75
2023/08/10 09:40:05;;;;;;;3.90;1.40;;;22.60;95.70;;;;;;4878616;29;20149;-77
2023/08/10 09:42:32;;;;;;;3.15;0.90;;;22.70;95.70;;;;;;4889307;29;20055;-77
2023/08/10 09:44:59;;;;;;;8.20;1.52;;;22.70;95.60;;;;;;4887071;29;20049;-77
2023/08/10 09:47:25;;;;;;;3.63;1.25;;;22.80;95.60;;;;;;4867475;29;20059;-77
2023/08/10 09:49:55;;;;;;;5.82;1.42;;;22.90;95.60;;;;;;4872576;29;20053;-76
2023/08/10 09:52:25;;;;;;;5.35;1.17;;;22.90;96.40;;;;;;4887960;29;20201;-75
2023/08/10 09:54:52;;;;;;;7.28;1.65;;;23.00;96.30;;;;;;4886782;29;20092;-73
2023/08/10 09:57:18;;;;;;;5.95;1.23;;;23.10;96.30;;;;;;4865048;29;20100;-76
2023/08/10 09:59:45;;;;;;;3.67;1.25;;;23.00;96.00;;;;;;4882771;29;20124;-77
2023/08/10 10:02:12;;;;;;;2.85;1.40;;;23.10;96.20;;;;;;4880563;29;20064;-75
2023/08/10 10:04:42;;;;;;;4.68;1.48;;;23.10;96.10;;;;;;4880330;29;20045;-77
2023/08/10 10:07:09;;;;;;;4.90;1.30;;;23.10;96.10;;;;;;4881504;29;20079;-75
2023/08/10 10:09:38;;;;;;;7.30;1.40;;;23.10;96.20;;;;;;4864234;29;20045;-76
2023/08/10 10:12:10;;;;;;;5.18;1.55;;;23.10;96.50;;;;;;4881489;29;20091;-76
2023/08/10 10:14:44;;;;;;;5.63;1.30;;;23.10;96.70;;;;;;4874376;29;20053;-78
2023/08/10 10:17:11;;;;;;;5.82;1.70;;;23.10;96.60;;;;;;4872742;29;20053;-73
2023/08/10 10:19:38;;;;;;;4.85;1.38;;;23.00;96.70;;;;;;4878304;29;20044;-76
2023/08/10 10:22:05;;;;;;;7.10;1.38;;;22.80;96.90;;;;;;4878626;29;20059;-75
2023/08/10 10:24:34;;;;;;;7.35;1.67;;;23.00;97.00;;;;;;4864004;29;20041;-73
2023/08/10 10:27:10;;;;;;;4.47;1.30;;;23.10;97.30;;;;;;4879153;29;20114;-75
2023/08/10 10:29:41;;;;;;;4.78;1.50;;;23.00;96.60;;;;;;4879273;29;20185;-75
2023/08/10 10:32:09;;;;;;;5.13;1.80;;;23.00;97.10;;;;;;4878898;29;20052;-78
2023/08/10 10:34:37;;;;;;;3.72;1.40;;;23.00;97.40;;;;;;4884432;29;20448;-76
2023/08/10 10:37:15;;;;;;;2.80;1.30;;;22.90;96.80;;;;;;4887837;29;20052;-75
2023/08/10 10:39:47;;;;;;;2.72;1.27;;;22.80;96.70;;;;;;4887679;29;20053;-77
2023/08/10 10:42:16;;;;;;;3.97;1.30;;;22.80;96.90;;;;;;4883379;29;20074;-74
2023/08/10 10:45:06;;;;;;;4.53;1.30;;;22.90;97.00;;;;;;4884907;29;20060;-75
2023/08/10 10:47:49;;;;;;;3.17;1.20;;;22.90;97.10;;;;;;4894517;29;20135;-75
2023/08/10 10:50:18;;;;;;;3.20;1.20;;;22.80;97.20;;;;;;4881357;29;20501;-74
2023/08/10 10:53:02;;;;;;;3.58;1.23;;;22.70;97.00;;;;;;4886866;29;20041;-74
2023/08/10 10:55:41;;;;;;;3.95;1.55;;;22.90;97.30;;;;;;4880809;29;20044;-74
2023/08/10 10:58:08;;;;;;;5.22;1.60;;;22.90;97.20;;;;;;4879862;29;20061;-74
2023/08/10 11:00:36;;;;;;;6.70;1.75;;;22.90;97.40;;;;;;4879345;29;20041;-76
2023/08/10 11:03:08;;;;;;;5.90;1.45;;;23.00;97.60;;;;;;4882535;29;20060;-75
2023/08/10 11:05:34;;;;;;;6.40;1.63;;;23.10;97.40;;;;;;4879416;29;20415;-74
2023/08/10 11:08:05;;;;;;;3.75;1.38;;;23.30;97.10;;;;;;4880543;29;20203;-76
2023/08/10 11:10:36;;;;;;;5.50;1.50;;;23.40;97.10;;;;;;4879203;29;20052;-75
2023/08/10 11:13:06;;;;;;;4.13;1.55;;;23.50;97.20;;;;;;4869962;29;20056;-75
2023/08/10 11:15:33;;;;;;;6.38;1.70;;;23.60;97.00;;;;;;4878171;29;20080;-75
2023/08/10 11:17:59;;;;;;;6.40;1.50;;;23.60;97.20;;;;;;4883407;29;20048;-75
2023/08/10 11:20:25;;;;;;;6.68;1.73;;;23.70;96.60;;;;;;4885947;29;20125;-75
2023/08/10 11:22:52;;;;;;;5.78;1.48;;;23.70;96.70;;;;;;4882431;29;20057;-75
2023/08/10 11:25:29;;;;;;;5.68;1.60;;;23.80;96.70;;;;;;4861520;29;20068;-74
2023/08/10 11:27:56;;;;;;;7.10;1.85;;;23.80;96.90;;;;;;4876748;29;20041;-74
2023/08/10 11:30:23;;;;;;;6.35;1.80;;;23.90;97.10;;;;;;4862679;29;20056;-73
2023/08/10 11:32:51;;;;;;;3.92;1.67;;;23.80;96.80;;;;;;4876607;29;20100;-76
2023/08/10 11:35:20;;;;;;;6.68;1.70;;;23.60;97.30;;;;;;4881351;29;20049;-79
2023/08/10 11:37:47;;;;;;;4.30;1.48;;;23.60;97.10;;;;;;4874293;29;20056;-79
2023/08/10 11:40:16;;;;;;;4.82;1.83;;;23.60;97.10;;;;;;4877570;29;20059;-79
2023/08/10 11:42:49;;;;;;;5.00;1.50;;;23.60;97.20;;;;;;4875721;29;20049;-79
2023/08/10 11:45:25;;;;;;;6.72;1.65;;;23.50;97.20;;;;;;4880318;29;20125;-79
2023/08/10 11:47:54;;;;;;;6.22;1.52;;;23.40;97.50;;;;;;4878667;29;20450;-80
2023/08/10 11:50:21;;;;;;;5.32;1.80;;;23.40;97.50;;;;;;4877682;29;20099;-78
2023/08/10 11:52:51;;;;;;;7.57;1.80;;;23.30;97.30;;;;;;4878284;29;20087;-74
2023/08/10 11:55:18;;;;;;;5.22;1.85;;;23.30;97.50;;;;;;4885003;29;20080;-75
2023/08/10 11:57:48;;;;;;;10.68;2.20;;;23.30;97.40;;;;;;4875610;29;20053;-78
2023/08/10 12:00:23;;;;;;;5.25;1.70;;;23.30;97.30;;;;;;4882143;29;20096;-78
2023/08/10 12:03:06;;;;;;;5.32;1.63;;;23.30;97.70;;;;;;4882457;29;20121;-77
2023/08/10 12:05:34;;;;;;;5.53;1.48;;;23.30;97.70;;;;;;4878053;29;20059;-76
2023/08/10 12:08:02;;;;;;;4.75;1.77;;;23.20;97.80;;;;;;4874159;29;20076;-77
2023/08/10 12:10:41;;;;;;;4.63;1.63;;;23.20;97.70;;;;;;4861101;29;20128;-76
2023/08/10 12:13:10;;;;;;;6.97;1.77;;;23.10;98.00;;;;;;4880009;29;20072;-79
2023/08/10 12:15:37;;;;;;;8.43;1.77;;;23.10;97.90;;;;;;4866299;29;20475;-78
2023/08/10 12:18:05;;;;;;;8.05;2.13;;;23.10;98.00;;;;;;4883836;29;20060;-77
2023/08/10 12:20:31;;;;;;;6.65;2.08;;;23.00;98.20;;;;;;4880674;29;20473;-74
2023/08/10 12:22:57;;;;;;;8.25;1.90;;;23.00;98.40;;;;;;4850219;29;20059;-80
2023/08/10 12:25:23;;;;;;;4.32;1.60;;;23.00;98.50;;;;;;4869634;29;20045;-81
2023/08/10 12:27:49;;;;;;;5.07;1.52;;;23.00;98.70;;;;;;4881321;29;20053;-83
2023/08/10 12:30:15;;;;;;;5.97;2.00;;;23.00;98.60;;;;;;4875226;29;20053;-83
2023/08/10 12:32:41;;;;;;;5.20;1.77;;;23.00;98.70;;;;;;4867792;29;20050;-82
2023/08/10 12:35:07;;;;;;;5.90;1.95;;;23.10;99.00;;;;;;4872190;29;20131;-81
2023/08/10 12:37:32;;;;;;;6.43;2.10;;;23.10;99.10;;;;;;4877329;29;20057;-81
2023/08/10 12:39:58;;;;;;;5.72;1.85;;;23.10;99.30;;;;;;4861309;29;20041;-82
2023/08/10 12:42:24;;;;;;;6.55;2.33;;;23.10;99.40;;;;;;4873180;29;20056;-82
2023/08/10 12:44:51;;;;;;;5.10;1.92;;;23.00;99.40;;;;;;4889984;29;20057;-82
2023/08/10 12:47:17;;;;;;;6.65;1.90;;;23.00;99.60;;;;;;4874899;29;20538;-83